Time;durP1;ratioP1;P1;durP2;ratioP2;P2;SDS_P1;SDS_P2;PMS_P1;PMS_P2;Temp;Humidity;BMP_temperature;BMP_pressure;BME280_temperature;BME280_humidity;BME280_pressure;Samples;Min_cycle;Max_cycle;Signal;HPM_P1;HPM_P2
2023/03/28 00:01:04;;;;;;;0.10;0.10;;;;;;;3.01;88.75;98839.88;4966280;28;20074;-76
2023/03/28 00:03:35;;;;;;;0.10;0.10;;;;;;;3.01;88.77;98837.97;4985841;28;20042;-75
2023/03/28 00:06:08;;;;;;;0.10;0.10;;;;;;;2.93;88.97;98839.19;4984261;28;20050;-76
2023/03/28 00:08:35;;;;;;;0.10;0.10;;;;;;;2.83;89.31;98833.69;4986626;28;20054;-76
2023/03/28 00:11:03;;;;;;;0.10;0.10;;;;;;;2.80;89.54;98836.84;4983720;28;20074;-76
2023/03/28 00:13:29;;;;;;;0.10;0.10;;;;;;;2.81;89.65;98835.78;4983249;28;20050;-76
2023/03/28 00:16:02;;;;;;;0.10;0.10;;;;;;;2.83;89.55;98847.16;4984155;28;20042;-76
2023/03/28 00:18:29;;;;;;;0.10;0.10;;;;;;;2.80;89.82;98845.78;4986711;28;20148;-76
2023/03/28 00:20:55;;;;;;;0.10;0.10;;;;;;;2.76;89.94;98850.03;4986553;28;20096;-76
2023/03/28 00:23:23;;;;;;;0.10;0.10;;;;;;;2.65;89.92;98843.66;5004630;28;20049;-77
2023/03/28 00:25:49;;;;;;;0.10;0.10;;;;;;;2.68;90.05;98870.16;4988583;28;20050;-76
2023/03/28 00:28:16;;;;;;;0.10;0.10;;;;;;;2.60;90.19;98845.47;4983928;28;20042;-76
2023/03/28 00:30:42;;;;;;;0.10;0.10;;;;;;;2.67;90.27;98863.13;4967904;28;20145;-78
2023/03/28 00:33:08;;;;;;;0.10;0.10;;;;;;;2.60;90.37;98862.47;4966667;28;20162;-76
2023/03/28 00:35:35;;;;;;;0.10;0.10;;;;;;;2.64;90.58;98869.00;4983252;28;20074;-76
2023/03/28 00:38:02;;;;;;;0.10;0.10;;;;;;;2.66;90.53;98874.16;4983497;28;20490;-76
2023/03/28 00:40:35;;;;;;;0.10;0.10;;;;;;;2.62;90.55;98879.22;4984268;28;20153;-76
2023/03/28 00:43:02;;;;;;;0.10;0.10;;;;;;;2.60;90.56;98880.56;4981262;28;20532;-75
2023/03/28 00:45:28;;;;;;;0.10;0.10;;;;;;;2.53;90.85;98875.31;4982151;28;20050;-75
2023/03/28 00:48:00;;;;;;;0.10;0.10;;;;;;;2.56;91.03;98882.91;4966258;28;20425;-76
2023/03/28 00:50:30;;;;;;;0.10;0.10;;;;;;;2.54;91.33;98882.34;4966711;28;20548;-75
2023/03/28 00:53:01;;;;;;;0.10;0.10;;;;;;;2.58;91.41;98883.50;4952016;28;20054;-76
2023/03/28 00:55:33;;;;;;;0.10;0.10;;;;;;;2.62;91.09;98891.91;4986070;28;20046;-76
2023/03/28 00:58:03;;;;;;;0.10;0.10;;;;;;;2.54;90.87;98880.44;4999855;28;20054;-76
2023/03/28 01:00:31;;;;;;;0.10;0.10;;;;;;;2.55;90.93;98886.69;5003312;28;20050;-76
2023/03/28 01:03:00;;;;;;;0.10;0.10;;;;;;;2.50;91.04;98892.00;4971726;28;20149;-76
2023/03/28 01:05:30;;;;;;;0.10;0.10;;;;;;;2.58;91.13;98890.78;5004153;28;20137;-76
2023/03/28 01:08:02;;;;;;;0.10;0.10;;;;;;;2.57;90.84;98902.59;5000040;28;20046;-75
2023/03/28 01:10:31;;;;;;;0.10;0.10;;;;;;;2.50;91.07;98894.69;4986608;28;20058;-75
2023/03/28 01:13:00;;;;;;;0.10;0.10;;;;;;;2.49;91.16;98907.34;4985326;28;20056;-75
2023/03/28 01:15:28;;;;;;;0.10;0.10;;;;;;;2.46;91.33;98905.16;5004378;28;20132;-75
2023/03/28 01:18:01;;;;;;;0.10;0.10;;;;;;;2.47;91.44;98903.25;5002508;28;20598;-76
2023/03/28 01:20:50;;;;;;;0.10;0.10;;;;;;;2.35;91.26;98877.19;4986179;28;20041;-76
2023/03/28 01:23:41;;;;;;;0.10;0.10;;;;;;;2.37;91.42;98893.09;5002217;28;20099;-75
2023/03/28 01:26:44;;;;;;;0.10;0.10;;;;;;;2.30;91.87;98890.56;5003501;28;20050;-76
2023/03/28 01:29:53;;;;;;;0.10;0.10;;;;;;;2.15;91.79;98885.72;4964869;28;20073;-76
2023/03/28 01:32:50;;;;;;;0.10;0.10;;;;;;;2.25;92.14;98904.78;4949819;28;20411;-76
2023/03/28 01:35:57;;;;;;;0.10;0.10;;;;;;;2.19;91.88;98910.34;4964954;28;20100;-76
2023/03/28 01:38:35;;;;;;;0.10;0.10;;;;;;;2.12;92.09;98908.59;4966520;28;20046;-76
2023/03/28 01:41:08;;;;;;;0.10;0.10;;;;;;;2.05;92.32;98905.22;4998289;28;20045;-75
2023/03/28 01:43:53;;;;;;;0.10;0.10;;;;;;;2.02;92.27;98905.69;4986206;28;20046;-75
2023/03/28 01:46:26;;;;;;;0.10;0.10;;;;;;;1.95;92.97;98896.94;4985867;28;20050;-75
2023/03/28 01:49:00;;;;;;;0.10;0.10;;;;;;;1.94;93.07;98898.78;5005420;28;20042;-75
2023/03/28 01:51:38;;;;;;;0.20;0.20;;;;;;;1.97;93.33;98901.03;5002262;28;20061;-76
2023/03/28 01:54:12;;;;;;;0.10;0.10;;;;;;;1.74;93.25;98871.44;5004961;28;20057;-76
2023/03/28 01:56:45;;;;;;;0.10;0.10;;;;;;;1.87;93.45;98910.78;5004716;28;20092;-75
2023/03/28 01:59:17;;;;;;;0.10;0.10;;;;;;;1.83;93.74;98903.19;4987260;28;20056;-76
2023/03/28 02:02:27;;;;;;;0.10;0.10;;;;;;;1.81;93.88;98920.66;5002536;28;20145;-76
2023/03/28 02:05:03;;;;;;;0.10;0.10;;;;;;;1.77;93.90;98914.09;4971983;28;20133;-76
2023/03/28 02:07:32;;;;;;;0.10;0.10;;;;;;;1.84;93.94;98923.69;4987126;28;20046;-76
2023/03/28 02:10:14;;;;;;;0.10;0.10;;;;;;;1.80;94.17;98922.53;5003373;28;20545;-76
2023/03/28 02:13:02;;;;;;;0.10;0.10;;;;;;;1.77;94.36;98916.78;4987710;28;20074;-76
2023/03/28 02:16:01;;;;;;;0.10;0.10;;;;;;;1.74;94.52;98926.19;4935296;28;20467;-76
2023/03/28 02:18:58;;;;;;;0.10;0.10;;;;;;;1.70;94.57;98923.16;4986921;28;20041;-75
2023/03/28 02:21:38;;;;;;;0.10;0.10;;;;;;;1.73;94.76;98929.94;5002368;28;20587;-76
2023/03/28 02:24:27;;;;;;;0.10;0.10;;;;;;;1.66;94.93;98927.38;4985905;28;20308;-76
2023/03/28 02:27:15;;;;;;;0.10;0.10;;;;;;;1.65;95.26;98933.00;4988295;28;20432;-76
2023/03/28 02:29:49;;;;;;;0.10;0.10;;;;;;;1.65;95.08;98930.31;4985503;28;20050;-76
2023/03/28 02:32:20;;;;;;;0.10;0.10;;;;;;;1.67;95.19;98937.09;4967202;28;20049;-76
2023/03/28 02:34:49;;;;;;;0.10;0.10;;;;;;;1.69;95.40;98942.25;5003670;28;20042;-75
2023/03/28 02:37:28;;;;;;;0.10;0.10;;;;;;;1.68;95.24;98944.13;4987904;28;20756;-76
2023/03/28 02:40:06;;;;;;;0.10;0.10;;;;;;;1.71;95.56;98942.81;5005196;28;20100;-76
2023/03/28 02:43:01;;;;;;;0.10;0.10;;;;;;;1.74;95.57;98944.22;4986531;28;20435;-76
2023/03/28 02:45:42;;;;;;;0.10;0.10;;;;;;;1.74;95.62;98950.44;4999161;28;20046;-75
2023/03/28 02:48:24;;;;;;;0.10;0.10;;;;;;;1.79;95.76;98953.25;4985822;28;20145;-75
2023/03/28 02:51:08;;;;;;;0.10;0.10;;;;;;;1.81;95.62;98953.00;4985052;28;20112;-75
2023/03/28 02:53:43;;;;;;;0.22;0.13;;;;;;;1.78;95.33;98958.84;4985500;28;20050;-75
2023/03/28 02:56:16;;;;;;;0.10;0.10;;;;;;;1.72;95.37;98960.66;5003657;28;20054;-76
2023/03/28 02:59:15;;;;;;;0.10;0.10;;;;;;;1.64;95.50;98956.44;5002398;28;20061;-76
2023/03/28 03:01:42;;;;;;;0.10;0.10;;;;;;;1.70;95.60;98965.44;4986980;28;20080;-76
2023/03/28 03:04:09;;;;;;;0.10;0.10;;;;;;;1.70;95.64;98968.97;5005529;28;20058;-75
2023/03/28 03:06:35;;;;;;;0.10;0.10;;;;;;;1.65;95.61;98974.25;5000435;28;20603;-75
2023/03/28 03:09:03;;;;;;;0.10;0.10;;;;;;;1.61;95.84;98966.88;5019211;28;20057;-75
2023/03/28 03:11:29;;;;;;;;;;;;;;;1.61;95.82;98983.84;5003124;28;20085;-75
2023/03/28 03:13:59;;;;;;;0.10;0.10;;;;;;;1.59;96.06;98974.38;5003374;28;19988;-76
2023/03/28 03:16:30;;;;;;;0.10;0.10;;;;;;;1.61;95.80;98989.22;5004875;28;20048;-77
2023/03/28 03:18:57;;;;;;;0.10;0.10;;;;;;;1.57;95.78;98981.88;4988396;28;20046;-76
2023/03/28 03:21:24;;;;;;;0.10;0.10;;;;;;;1.34;95.77;98949.31;5005384;28;20518;-76
2023/03/28 03:23:51;;;;;;;0.10;0.10;;;;;;;1.66;95.81;98992.06;4989753;28;20123;-76
2023/03/28 03:26:17;;;;;;;0.10;0.10;;;;;;;1.66;95.89;99002.84;4987666;28;20116;-77
2023/03/28 03:29:03;;;;;;;0.10;0.10;;;;;;;1.70;96.00;98995.91;4983941;28;20417;-76
2023/03/28 03:31:32;;;;;;;;;;;;;;;1.73;95.90;99005.41;4968637;28;20042;-75
2023/03/28 03:33:58;;;;;;;0.10;0.10;;;;;;;1.73;95.93;98991.09;4983444;28;19935;-75
2023/03/28 03:36:30;;;;;;;0.10;0.10;;;;;;;1.76;95.71;98999.56;4966760;28;20057;-76
2023/03/28 03:38:58;;;;;;;0.10;0.10;;;;;;;1.77;95.64;99000.34;4998557;28;20535;-75
2023/03/28 03:41:25;;;;;;;0.10;0.10;;;;;;;1.78;95.86;98993.91;5004327;28;20061;-75
2023/03/28 03:43:52;;;;;;;0.10;0.10;;;;;;;1.83;95.80;99000.22;5002292;28;20065;-75
2023/03/28 03:46:19;;;;;;;0.10;0.10;;;;;;;1.91;95.90;99001.75;4987042;28;20215;-76
2023/03/28 03:48:49;;;;;;;0.10;0.10;;;;;;;1.93;95.44;99005.00;4965482;28;20522;-76
2023/03/28 03:51:14;;;;;;;;;;;;;;;2.02;95.44;99012.75;4982239;28;20584;-76
2023/03/28 03:53:41;;;;;;;0.10;0.10;;;;;;;2.02;95.36;99005.47;4982739;28;19933;-76
2023/03/28 03:56:14;;;;;;;0.10;0.10;;;;;;;2.15;94.93;99011.66;4984488;28;20049;-76
2023/03/28 03:58:55;;;;;;;0.10;0.10;;;;;;;2.22;94.76;99006.97;4984794;28;20448;-75
2023/03/28 04:01:28;;;;;;;0.10;0.10;;;;;;;2.29;94.41;99010.31;4984639;28;20050;-75
2023/03/28 04:03:57;;;;;;;0.10;0.10;;;;;;;2.38;93.98;99008.91;4987539;28;20054;-76
2023/03/28 04:06:33;;;;;;;0.10;0.10;;;;;;;2.40;93.66;99022.13;4969669;28;20058;-75
2023/03/28 04:09:04;;;;;;;0.17;0.17;;;;;;;2.39;93.49;99007.00;5002280;28;20556;-75
2023/03/28 04:11:54;;;;;;;0.20;0.20;;;;;;;2.48;93.29;99010.13;4984569;28;20157;-76
2023/03/28 04:14:20;;;;;;;0.10;0.10;;;;;;;2.60;92.97;99024.41;4970465;28;20061;-76
2023/03/28 04:16:49;;;;;;;0.17;0.17;;;;;;;2.63;92.33;99004.22;4982827;28;20054;-77
2023/03/28 04:19:19;;;;;;;0.20;0.20;;;;;;;2.72;92.07;99010.06;4988101;28;20296;-77
2023/03/28 04:21:47;;;;;;;0.10;0.10;;;;;;;2.79;91.56;99013.41;4998450;28;20072;-76
2023/03/28 04:24:15;;;;;;;0.20;0.20;;;;;;;2.84;91.29;99017.03;5003149;28;20061;-76
2023/03/28 04:26:54;;;;;;;0.10;0.10;;;;;;;2.92;91.17;99018.50;5002799;28;20071;-76
2023/03/28 04:29:29;;;;;;;0.10;0.10;;;;;;;2.99;90.74;99010.25;5001950;28;20061;-75
2023/03/28 04:32:11;;;;;;;0.20;0.20;;;;;;;3.06;90.16;99018.19;4993074;28;20141;-76
2023/03/28 04:35:02;;;;;;;0.10;0.10;;;;;;;3.09;89.87;99012.31;5011492;28;20061;-76
2023/03/28 04:37:29;;;;;;;0.20;0.20;;;;;;;3.14;89.45;99020.50;4974690;28;20886;-76
2023/03/28 04:40:01;;;;;;;0.20;0.20;;;;;;;3.20;89.14;99013.28;4966082;28;20042;-68
2023/03/28 04:42:49;;;;;;;0.20;0.20;;;;;;;3.21;88.69;99004.94;4980471;28;20610;-76
2023/03/28 04:45:32;;;;;;;0.10;0.10;;;;;;;3.43;88.17;99019.59;4961695;28;20042;-76
2023/03/28 04:48:07;;;;;;;0.20;0.20;;;;;;;3.54;87.60;99024.91;5002396;28;20524;-76
2023/03/28 04:50:35;;;;;;;0.10;0.10;;;;;;;3.63;87.19;99030.72;5006427;28;20107;-76
2023/03/28 04:53:01;;;;;;;0.13;0.13;;;;;;;3.76;87.01;99031.44;5005181;28;20053;-77
2023/03/28 04:55:28;;;;;;;0.20;0.20;;;;;;;3.88;86.25;99031.31;5002257;28;20612;-76
2023/03/28 04:57:54;;;;;;;0.20;0.20;;;;;;;3.92;85.65;99021.66;5008627;28;20049;-76
2023/03/28 05:00:22;;;;;;;;;;;;;;;4.10;85.16;99036.75;4966483;28;20050;-77
2023/03/28 05:03:09;;;;;;;0.20;0.20;;;;;;;4.22;84.48;99036.66;5000171;28;19925;-70
2023/03/28 05:05:50;;;;;;;0.20;0.20;;;;;;;4.38;83.66;99038.50;4983746;28;20514;-69
2023/03/28 05:08:19;;;;;;;0.20;0.20;;;;;;;4.47;83.24;99032.59;4991814;28;20046;-69
2023/03/28 05:10:46;;;;;;;0.20;0.20;;;;;;;4.53;82.73;99037.03;4972840;28;20291;-77
2023/03/28 05:13:13;;;;;;;0.20;0.20;;;;;;;4.67;82.38;99043.66;4969697;28;20084;-77
2023/03/28 05:15:45;;;;;;;0.20;0.20;;;;;;;4.82;82.06;99042.19;4982199;28;20346;-76
2023/03/28 05:18:22;;;;;;;0.20;0.20;;;;;;;4.83;81.43;99031.09;4967440;28;20388;-76
2023/03/28 05:20:53;;;;;;;0.20;0.20;;;;;;;4.92;81.20;99049.63;4951871;28;20529;-69
2023/03/28 05:23:19;;;;;;;0.20;0.20;;;;;;;5.02;80.90;99059.75;4980321;28;20129;-69
2023/03/28 05:25:50;;;;;;;0.20;0.20;;;;;;;5.13;80.44;99053.31;4981867;28;20141;-69
2023/03/28 05:28:16;;;;;;;0.20;0.20;;;;;;;5.22;79.61;99048.25;4981935;28;20046;-69
2023/03/28 05:30:50;;;;;;;0.20;0.20;;;;;;;5.25;79.18;99032.28;4979295;28;20081;-69
2023/03/28 05:33:17;;;;;;;0.17;0.17;;;;;;;5.56;78.83;99053.44;4975760;28;20499;-70
2023/03/28 05:35:44;;;;;;;;;;;;;;;5.65;77.83;99054.56;4982114;28;20097;-69
2023/03/28 05:38:15;;;;;;;0.20;0.20;;;;;;;5.76;77.39;99063.59;4970499;28;20749;-76
2023/03/28 05:40:44;;;;;;;0.20;0.20;;;;;;;5.89;76.71;99061.50;4968782;28;20037;-76
2023/03/28 05:43:10;;;;;;;0.20;0.20;;;;;;;5.99;76.21;99068.88;4971724;28;20371;-76
2023/03/28 05:45:37;;;;;;;0.10;0.10;;;;;;;6.02;75.45;99071.94;4991476;28;20133;-76
2023/03/28 05:48:26;;;;;;;0.20;0.20;;;;;;;6.00;75.41;99073.22;5001867;28;20046;-76
2023/03/28 05:50:53;;;;;;;0.20;0.20;;;;;;;6.00;75.25;99068.63;5006075;28;20042;-76
2023/03/28 05:53:24;;;;;;;0.20;0.20;;;;;;;6.11;75.19;99072.25;4986766;28;20502;-76
2023/03/28 05:55:51;;;;;;;0.20;0.20;;;;;;;6.24;74.55;99077.22;5000588;28;20042;-77
2023/03/28 05:58:18;;;;;;;0.20;0.20;;;;;;;6.37;74.09;99078.63;5003487;28;20141;-70
2023/03/28 06:00:45;;;;;;;0.20;0.20;;;;;;;6.46;73.67;99075.41;5002865;28;20046;-69
2023/03/28 06:03:14;;;;;;;0.10;0.10;;;;;;;6.55;73.18;99081.16;4993629;28;20132;-70
2023/03/28 06:05:40;;;;;;;0.10;0.10;;;;;;;6.61;73.03;99078.19;4986842;28;20073;-69
2023/03/28 06:08:19;;;;;;;0.20;0.20;;;;;;;6.77;72.33;99094.53;4986632;28;20541;-70
2023/03/28 06:10:47;;;;;;;0.17;0.17;;;;;;;6.79;72.33;99095.91;5022364;28;20056;-70
2023/03/28 06:13:20;;;;;;;0.20;0.20;;;;;;;6.89;71.97;99091.56;5003332;28;20046;-70
2023/03/28 06:15:47;;;;;;;0.80;0.20;;;;;;;6.85;71.42;99087.78;5004539;28;20158;-70
2023/03/28 06:18:14;;;;;;;0.20;0.20;;;;;;;6.83;71.33;99095.38;4992074;28;20200;-70
2023/03/28 06:20:45;;;;;;;0.20;0.20;;;;;;;6.92;71.21;99105.47;5023264;28;20052;-70
2023/03/28 06:23:12;;;;;;;0.20;0.20;;;;;;;6.99;70.85;99105.19;5007275;28;20056;-70
2023/03/28 06:25:38;;;;;;;0.20;0.20;;;;;;;7.10;70.66;99108.75;5001966;28;20092;-70
2023/03/28 06:28:06;;;;;;;0.20;0.20;;;;;;;7.17;70.46;99106.56;4986861;28;20045;-70
2023/03/28 06:30:40;;;;;;;0.20;0.20;;;;;;;7.26;70.04;99106.06;4992138;28;20100;-69
2023/03/28 06:33:08;;;;;;;0.20;0.20;;;;;;;7.33;69.96;99095.72;5005839;28;20458;-70
2023/03/28 06:35:34;;;;;;;0.20;0.20;;;;;;;7.49;69.66;99110.16;5006382;28;20570;-69
2023/03/28 06:38:01;;;;;;;0.20;0.20;;;;;;;7.65;69.44;99108.28;5006858;28;20045;-69
2023/03/28 06:40:27;;;;;;;0.20;0.20;;;;;;;7.91;69.15;99114.53;5007078;28;20314;-69
2023/03/28 06:42:54;;;;;;;0.20;0.20;;;;;;;7.98;68.41;99105.25;4972616;28;20061;-70
2023/03/28 06:45:30;;;;;;;0.20;0.20;;;;;;;8.04;68.05;99104.97;5007950;28;20061;-70
2023/03/28 06:48:01;;;;;;;0.20;0.20;;;;;;;8.09;67.24;99096.78;5007185;28;20049;-71
2023/03/28 06:50:50;;;;;;;0.20;0.20;;;;;;;8.15;66.85;99107.69;5008406;28;20121;-69
2023/03/28 06:53:19;;;;;;;0.30;0.30;;;;;;;8.14;65.94;99106.06;5020441;28;20069;-70
2023/03/28 06:55:48;;;;;;;0.10;0.10;;;;;;;8.08;65.91;99111.50;5019287;28;20085;-70
2023/03/28 06:58:15;;;;;;;0.20;0.20;;;;;;;8.19;65.70;99106.81;5008466;28;20492;-76
2023/03/28 07:00:59;;;;;;;0.20;0.20;;;;;;;8.25;65.04;99115.00;4993615;28;20042;-77
2023/03/28 07:03:31;;;;;;;0.20;0.20;;;;;;;8.31;64.94;99111.16;5016723;28;20068;-76
2023/03/28 07:05:58;;;;;;;0.20;0.20;;;;;;;8.33;64.24;99119.88;5004737;28;20053;-76
2023/03/28 07:08:25;;;;;;;0.30;0.30;;;;;;;8.48;64.14;99113.59;4973966;28;20539;-76
2023/03/28 07:10:51;;;;;;;0.30;0.30;;;;;;;8.58;63.53;99116.28;4991010;28;20045;-77
2023/03/28 07:13:17;;;;;;;0.20;0.20;;;;;;;8.62;63.67;99116.53;4995230;28;20050;-77
2023/03/28 07:16:01;;;;;;;0.20;0.20;;;;;;;8.62;63.35;99125.56;4999753;28;20505;-69
2023/03/28 07:18:27;;;;;;;0.20;0.20;;;;;;;8.61;63.61;99121.19;5019730;28;20049;-70
2023/03/28 07:20:54;;;;;;;0.20;0.20;;;;;;;8.61;63.50;99128.53;4986238;28;20418;-69
2023/03/28 07:23:22;;;;;;;0.30;0.30;;;;;;;8.48;63.31;99119.81;5004440;28;20108;-76
2023/03/28 07:25:48;;;;;;;;;;;;;;;8.56;63.25;99131.28;5003951;28;20579;-76
2023/03/28 07:28:14;;;;;;;0.30;0.30;;;;;;;8.50;63.21;99119.59;4972776;28;19926;-76
2023/03/28 07:30:40;;;;;;;0.20;0.20;;;;;;;8.46;63.25;99105.66;4983133;28;20061;-76
2023/03/28 07:33:08;;;;;;;0.20;0.20;;;;;;;8.67;63.31;99126.63;5005475;28;20065;-76
2023/03/28 07:35:38;;;;;;;0.20;0.20;;;;;;;8.92;62.46;99123.78;5008451;28;20054;-76
2023/03/28 07:38:04;;;;;;;0.20;0.20;;;;;;;9.04;62.06;99133.53;5007811;28;20050;-76
2023/03/28 07:40:36;;;;;;;0.43;0.20;;;;;;;9.04;61.27;99134.34;5005447;28;20050;-76
2023/03/28 07:43:03;;;;;;;0.20;0.20;;;;;;;9.07;61.70;99141.97;5006237;28;20060;-76
2023/03/28 07:45:30;;;;;;;0.20;0.20;;;;;;;9.21;60.84;99141.34;4988477;28;20053;-69
2023/03/28 07:47:56;;;;;;;0.20;0.20;;;;;;;9.17;60.63;99126.66;5000723;28;20521;-70
2023/03/28 07:50:24;;;;;;;0.30;0.30;;;;;;;9.24;60.57;99131.81;4998490;28;20133;-69
2023/03/28 07:52:56;;;;;;;0.20;0.20;;;;;;;9.18;60.89;99131.00;4987950;28;20057;-70
2023/03/28 07:55:24;;;;;;;0.28;0.20;;;;;;;9.04;60.92;99137.09;4988401;28;20042;-70
2023/03/28 07:57:50;;;;;;;0.20;0.20;;;;;;;9.06;60.97;99129.44;4983544;28;20053;-70
2023/03/28 08:00:32;;;;;;;0.20;0.20;;;;;;;8.99;60.61;99133.56;4987519;28;20046;-70
2023/03/28 08:03:27;;;;;;;0.20;0.20;;;;;;;8.96;60.68;99131.41;5002425;28;20317;-70
2023/03/28 08:05:55;;;;;;;0.20;0.20;;;;;;;9.14;60.73;99138.94;5007607;28;20041;-70
2023/03/28 08:08:22;;;;;;;0.30;0.30;;;;;;;9.35;59.70;99133.34;5006612;28;20280;-70
2023/03/28 08:11:18;;;;;;;0.45;0.30;;;;;;;9.54;59.10;99136.22;4974832;28;20632;-71
2023/03/28 08:13:44;;;;;;;0.30;0.30;;;;;;;9.77;58.79;99145.59;5006686;28;20060;-70
2023/03/28 08:16:18;;;;;;;0.45;0.30;;;;;;;9.97;57.74;99151.19;5003132;28;20118;-70
2023/03/28 08:18:44;;;;;;;0.20;0.20;;;;;;;10.00;57.74;99147.88;4996511;28;20046;-70
2023/03/28 08:21:12;;;;;;;0.30;0.30;;;;;;;9.85;57.52;99140.66;5000916;28;20069;-70
2023/03/28 08:23:38;;;;;;;0.30;0.30;;;;;;;9.89;57.28;99147.16;5006009;28;20594;-70
2023/03/28 08:26:41;;;;;;;0.20;0.20;;;;;;;9.97;56.78;99151.19;5008023;28;20048;-70
2023/03/28 08:29:07;;;;;;;0.30;0.30;;;;;;;9.97;55.68;99146.53;5008016;28;20081;-70
2023/03/28 08:31:34;;;;;;;0.20;0.20;;;;;;;9.95;54.69;99145.19;4986246;28;20072;-70
2023/03/28 08:34:08;;;;;;;0.30;0.30;;;;;;;9.89;53.72;99145.22;5004312;28;20430;-70
2023/03/28 08:36:40;;;;;;;0.30;0.30;;;;;;;9.76;54.20;99140.44;5002002;28;20042;-70
2023/03/28 08:39:15;;;;;;;0.30;0.30;;;;;;;9.86;54.45;99140.34;5001571;28;20049;-70
2023/03/28 08:42:10;;;;;;;0.73;0.30;;;;;;;9.89;54.05;99133.50;4982845;28;20140;-70
2023/03/28 08:44:50;;;;;;;0.25;0.25;;;;;;;9.86;54.41;99136.81;5017964;28;20054;-70
2023/03/28 08:47:21;;;;;;;0.30;0.30;;;;;;;9.92;54.65;99141.13;4985874;28;20041;-70
2023/03/28 08:49:53;;;;;;;0.30;0.30;;;;;;;9.94;54.44;99128.00;5003255;28;20164;-70
2023/03/28 08:52:21;;;;;;;0.30;0.30;;;;;;;9.96;54.03;99133.97;4989725;28;20068;-69
2023/03/28 08:54:53;;;;;;;0.20;0.20;;;;;;;9.94;53.99;99125.25;5003987;28;20045;-69
2023/03/28 08:57:24;;;;;;;0.25;0.25;;;;;;;9.91;54.47;99126.66;4973487;28;20481;-70
2023/03/28 08:59:59;;;;;;;0.20;0.20;;;;;;;10.11;54.11;99122.09;5004170;28;20050;-70
2023/03/28 09:02:28;;;;;;;;;;;;;;;10.35;53.16;99124.88;5003047;28;20041;-70
2023/03/28 09:04:57;;;;;;;0.30;0.30;;;;;;;10.54;52.13;99117.88;4987250;28;19925;-69
2023/03/28 09:07:35;;;;;;;0.30;0.30;;;;;;;10.75;50.56;99129.34;5020335;28;20052;-70
2023/03/28 09:10:13;;;;;;;1.00;0.38;;;;;;;10.99;49.05;99137.53;4999246;28;20092;-70
2023/03/28 09:13:21;;;;;;;0.40;0.32;;;;;;;11.13;49.46;99125.84;4994871;28;20058;-69
2023/03/28 09:16:05;;;;;;;0.30;0.30;;;;;;;11.34;49.41;99131.84;4975237;28;20089;-70
2023/03/28 09:18:47;;;;;;;0.30;0.30;;;;;;;11.30;48.53;99112.47;4993491;28;20042;-70
2023/03/28 09:21:22;;;;;;;0.40;0.40;;;;;;;11.58;47.34;99128.22;5000597;28;20053;-70
2023/03/28 09:24:20;;;;;;;0.30;0.30;;;;;;;11.62;46.76;99124.56;4979015;28;20444;-70
2023/03/28 09:27:05;;;;;;;0.35;0.35;;;;;;;11.90;46.07;99132.88;5010872;28;20189;-70
2023/03/28 09:29:37;;;;;;;0.68;0.40;;;;;;;12.12;44.63;99125.16;5007679;28;20482;-70
2023/03/28 09:32:11;;;;;;;0.30;0.30;;;;;;;12.45;43.77;99128.66;4989526;28;20065;-70
2023/03/28 09:34:46;;;;;;;0.45;0.45;;;;;;;12.91;43.34;99129.66;4990503;28;20482;-70
2023/03/28 09:37:24;;;;;;;0.50;0.50;;;;;;;13.71;40.38;99114.69;4987546;28;20062;-70
2023/03/28 09:39:54;;;;;;;0.40;0.40;;;;;;;14.24;38.86;99126.03;4973520;28;20057;-70
2023/03/28 09:42:33;;;;;;;0.40;0.40;;;;;;;14.41;37.47;99130.78;4988172;28;20054;-71
2023/03/28 09:45:51;;;;;;;0.50;0.47;;;;;;;14.09;36.63;99120.94;4995696;28;20038;-70
2023/03/28 09:48:37;;;;;;;0.50;0.50;;;;;;;14.21;37.21;99112.09;4990389;28;20050;-70
2023/03/28 09:51:14;;;;;;;0.60;0.60;;;;;;;14.42;36.45;99123.34;4990920;28;20061;-70
2023/03/28 09:53:41;;;;;;;0.60;0.60;;;;;;;14.92;36.58;99115.91;5000840;28;20474;-70
2023/03/28 09:56:16;;;;;;;0.60;0.60;;;;;;;15.38;35.41;99128.28;5004604;28;20052;-70
2023/03/28 09:58:48;;;;;;;0.60;0.60;;;;;;;16.02;34.40;99137.03;5009720;28;20586;-70
2023/03/28 10:01:29;;;;;;;0.60;0.60;;;;;;;15.92;33.32;99137.34;5004986;28;20058;-71
2023/03/28 10:04:16;;;;;;;0.60;0.60;;;;;;;15.38;33.79;99124.72;4992423;28;20056;-70
2023/03/28 10:07:29;;;;;;;0.60;0.60;;;;;;;15.05;34.02;99123.22;5003592;28;20641;-70
2023/03/28 10:10:16;;;;;;;0.70;0.70;;;;;;;15.03;34.74;99123.53;4977848;28;20128;-70
2023/03/28 10:12:46;;;;;;;0.65;0.65;;;;;;;15.15;34.80;99131.19;5005234;28;20132;-77
2023/03/28 10:15:30;;;;;;;0.70;0.70;;;;;;;15.55;34.36;99130.25;4998166;28;20046;-77
2023/03/28 10:18:18;;;;;;;0.70;0.70;;;;;;;15.83;33.22;99120.81;4997276;28;20038;-77
2023/03/28 10:20:50;;;;;;;0.70;0.70;;;;;;;16.29;33.14;99133.06;4977904;28;20065;-77
2023/03/28 10:23:16;;;;;;;0.60;0.60;;;;;;;16.41;32.16;99137.06;4973258;28;20046;-77
2023/03/28 10:25:49;;;;;;;0.75;0.75;;;;;;;16.07;31.91;99139.59;4995942;28;20042;-77
2023/03/28 10:28:26;;;;;;;0.75;0.75;;;;;;;16.09;32.33;99136.53;4987494;28;20046;-77
2023/03/28 10:30:53;;;;;;;;;;;;;;;16.56;31.02;99135.72;4982068;28;20161;-77
2023/03/28 10:33:24;;;;;;;0.77;0.77;;;;;;;16.50;31.07;99140.59;4994979;28;19957;-77
2023/03/28 10:36:31;;;;;;;0.50;0.50;;;;;;;16.72;31.31;99138.72;4983357;28;20625;-77
2023/03/28 10:39:20;;;;;;;0.80;0.80;;;;;;;16.23;31.73;99139.06;4975379;28;20524;-77
2023/03/28 10:42:15;;;;;;;1.00;1.00;;;;;;;16.87;31.53;99137.34;4963596;28;20050;-77
2023/03/28 10:45:04;;;;;;;1.20;1.20;;;;;;;18.62;29.00;99136.16;4978238;28;20058;-77
2023/03/28 10:47:34;;;;;;;1.10;1.10;;;;;;;19.77;27.10;99138.03;4961411;28;20092;-77
2023/03/28 10:50:20;;;;;;;1.10;1.10;;;;;;;20.01;26.48;99125.25;4978289;28;20054;-77
2023/03/28 10:52:53;;;;;;;1.10;1.10;;;;;;;20.07;26.68;99135.75;4975761;28;20046;-77
2023/03/28 10:55:37;;;;;;;1.10;1.10;;;;;;;20.45;25.78;99127.19;4979889;28;20042;-77
2023/03/28 10:58:13;;;;;;;1.10;1.10;;;;;;;20.71;24.95;99128.59;4976920;28;20249;-78
2023/03/28 11:00:56;;;;;;;1.30;1.20;;;;;;;20.75;24.69;99130.28;4981021;28;20495;-77
2023/03/28 11:03:32;;;;;;;;;;;;;;;20.66;24.79;99129.69;4978794;28;20046;-77
2023/03/28 11:06:04;;;;;;;1.15;1.10;;;;;;;21.24;24.57;99129.06;4976469;28;19960;-77
2023/03/28 11:08:46;;;;;;;1.30;1.20;;;;;;;21.21;24.52;99126.19;4993320;28;20074;-77
2023/03/28 11:11:40;;;;;;;1.20;1.20;;;;;;;21.81;23.99;99114.75;4994834;28;20051;-77
2023/03/28 11:14:18;;;;;;;1.13;1.10;;;;;;;22.11;24.14;99110.53;4993947;28;20054;-71
2023/03/28 11:16:54;;;;;;;1.13;1.13;;;;;;;22.28;23.09;99119.56;4980531;28;20058;-70
2023/03/28 11:19:52;;;;;;;1.10;1.10;;;;;;;21.96;23.74;99109.47;4994397;28;20050;-71
2023/03/28 11:22:31;;;;;;;1.20;1.10;;;;;;;22.45;23.22;99116.28;5001155;28;20539;-70
2023/03/28 11:25:07;;;;;;;1.13;1.13;;;;;;;22.04;23.56;99116.75;4996016;28;20046;-71
2023/03/28 11:28:20;;;;;;;1.40;1.30;;;;;;;22.04;23.34;99110.41;4987498;28;20579;-71
2023/03/28 11:30:55;;;;;;;1.40;1.30;;;;;;;22.26;22.76;99113.56;5001272;28;20414;-71
2023/03/28 11:33:53;;;;;;;1.30;1.20;;;;;;;21.81;23.61;99109.19;4999794;28;20065;-71
2023/03/28 11:36:28;;;;;;;1.30;1.20;;;;;;;22.54;22.82;99107.69;4994939;28;20045;-71
2023/03/28 11:39:01;;;;;;;1.30;1.20;;;;;;;22.88;22.43;99101.47;5008277;28;20601;-71
2023/03/28 11:41:32;;;;;;;1.30;1.20;;;;;;;22.73;22.82;99104.03;5012108;28;20461;-71
2023/03/28 11:44:22;;;;;;;1.30;1.20;;;;;;;22.66;22.74;99093.56;4997474;28;20077;-70
2023/03/28 11:46:55;;;;;;;1.30;1.20;;;;;;;22.71;22.69;99094.44;4979530;28;20054;-71
2023/03/28 11:49:29;;;;;;;1.10;1.10;;;;;;;22.36;23.47;99090.69;4996194;28;20054;-71
2023/03/28 11:52:01;;;;;;;1.30;1.20;;;;;;;21.98;24.08;99082.06;4991444;28;20046;-71
2023/03/28 11:54:34;;;;;;;1.40;1.30;;;;;;;21.49;24.74;99091.84;4990902;28;20054;-70
2023/03/28 11:57:07;;;;;;;1.40;1.30;;;;;;;21.91;25.00;99081.94;4994097;28;20045;-70
2023/03/28 11:59:50;;;;;;;1.35;1.25;;;;;;;22.43;24.22;99070.50;4995109;28;20056;-71
2023/03/28 12:02:33;;;;;;;1.10;0.68;;;;;;;22.56;23.97;99082.28;4992542;28;20532;-70
2023/03/28 12:05:07;;;;;;;0.50;0.50;;;;;;;21.78;25.02;99087.69;4977605;28;20140;-70
2023/03/28 12:07:39;;;;;;;1.30;1.20;;;;;;;21.49;24.97;99078.75;4994737;28;20124;-70
2023/03/28 12:10:34;;;;;;;1.33;1.23;;;;;;;20.68;25.80;99085.69;4993435;28;20043;-70
2023/03/28 12:13:09;;;;;;;1.40;1.30;;;;;;;21.25;25.39;99074.28;4992026;28;20418;-70
2023/03/28 12:15:45;;;;;;;1.40;1.30;;;;;;;21.60;24.33;99076.16;4995454;28;20056;-70
2023/03/28 12:18:21;;;;;;;0.50;0.50;;;;;;;21.07;24.87;99052.47;4986619;28;20093;-71